createdAt,value
2019-01-27T00:01:14.149Z,30.40
2019-01-27T00:03:43.335Z,30.57
2019-01-27T00:06:12.572Z,28.30
2019-01-27T00:08:41.751Z,30.53
2019-01-27T00:11:10.961Z,28.70
2019-01-27T00:13:40.176Z,27.80
2019-01-27T00:16:09.576Z,28.30
2019-01-27T00:18:38.874Z,26.87
2019-01-27T00:21:08.163Z,26.60
2019-01-27T00:23:37.367Z,25.73
2019-01-27T00:26:06.584Z,25.37
2019-01-27T00:28:35.772Z,24.10
2019-01-27T00:31:04.973Z,24.73
2019-01-27T00:33:34.184Z,23.67
2019-01-27T00:36:03.418Z,23.63
2019-01-27T00:38:32.603Z,23.87
2019-01-27T00:41:01.768Z,25.00
2019-01-27T00:43:30.980Z,24.77
2019-01-27T00:46:00.179Z,25.67
2019-01-27T00:48:29.397Z,24.53
2019-01-27T00:50:58.611Z,25.50
2019-01-27T00:53:27.842Z,25.47
2019-01-27T00:55:57.071Z,26.70
2019-01-27T00:58:26.277Z,26.87
2019-01-27T01:00:55.512Z,26.30
2019-01-27T01:03:24.704Z,27.73
2019-01-27T01:05:53.920Z,28.97
2019-01-27T01:08:23.208Z,28.70
2019-01-27T01:10:52.431Z,28.33
2019-01-27T01:13:21.636Z,30.93
2019-01-27T01:15:50.919Z,31.77
2019-01-27T01:18:20.104Z,30.37
2019-01-27T01:20:49.331Z,30.77
2019-01-27T01:23:18.607Z,31.83
2019-01-27T01:25:47.841Z,32.27
2019-01-27T01:28:17.047Z,31.27
2019-01-27T01:30:46.254Z,33.37
2019-01-27T01:33:15.460Z,32.90
2019-01-27T01:35:44.673Z,33.20
2019-01-27T01:38:13.863Z,32.27
2019-01-27T01:40:43.072Z,33.23
2019-01-27T01:43:12.275Z,30.80
2019-01-27T01:45:41.498Z,32.07
2019-01-27T01:48:10.729Z,33.37
2019-01-27T01:50:39.916Z,32.23
2019-01-27T01:53:09.115Z,31.67
2019-01-27T01:55:38.349Z,31.17
2019-01-27T01:58:07.581Z,30.73
2019-01-27T02:00:36.968Z,31.33
2019-01-27T02:03:06.179Z,30.20
2019-01-27T02:05:35.371Z,30.27
2019-01-27T02:08:04.908Z,28.73
2019-01-27T02:10:34.117Z,29.63
2019-01-27T02:13:03.296Z,27.03
2019-01-27T02:16:01.982Z,26.27
2019-01-27T02:18:31.223Z,25.60
2019-01-27T02:21:00.868Z,25.10
2019-01-27T02:23:30.065Z,24.60
2019-01-27T02:25:59.263Z,25.43
2019-01-27T02:28:28.464Z,24.70
2019-01-27T02:30:57.775Z,23.33
2019-01-27T02:33:26.972Z,24.13
2019-01-27T02:35:56.213Z,24.00
2019-01-27T02:38:25.427Z,23.43
2019-01-27T02:40:54.644Z,23.27
2019-01-27T02:43:23.852Z,21.73
2019-01-27T02:45:53.068Z,21.37
2019-01-27T02:48:22.356Z,21.33
2019-01-27T02:50:51.599Z,19.87
2019-01-27T02:53:20.783Z,20.80
2019-01-27T02:55:50.016Z,20.27
2019-01-27T02:58:19.229Z,18.47
2019-01-27T03:00:48.467Z,18.20
2019-01-27T03:03:17.708Z,18.53
2019-01-27T03:06:09.032Z,18.67
2019-01-27T03:08:42.800Z,17.77
2019-01-27T03:11:12.013Z,17.03
2019-01-27T03:13:41.222Z,16.90
2019-01-27T03:16:11.172Z,15.80
2019-01-27T03:18:40.403Z,15.53
2019-01-27T03:21:09.608Z,17.27
2019-01-27T03:23:38.808Z,14.77
2019-01-27T03:26:08.032Z,13.87
2019-01-27T03:28:37.264Z,13.83
2019-01-27T03:31:06.555Z,14.77
2019-01-27T03:33:35.794Z,14.10
2019-01-27T03:36:05.195Z,13.47
2019-01-27T03:38:34.508Z,13.60
2019-01-27T03:41:03.836Z,14.10
2019-01-27T03:43:33.063Z,13.17
2019-01-27T03:46:02.278Z,12.73
2019-01-27T03:48:31.490Z,13.00
2019-01-27T03:51:00.696Z,13.93
2019-01-27T03:53:29.960Z,13.10
2019-01-27T03:55:59.195Z,13.90
2019-01-27T03:58:47.526Z,13.33
2019-01-27T04:01:16.718Z,14.27
2019-01-27T04:03:45.958Z,13.33
2019-01-27T04:06:15.166Z,13.30
2019-01-27T04:08:44.409Z,12.20
2019-01-27T04:11:13.623Z,12.27
2019-01-27T04:13:42.832Z,13.47
2019-01-27T04:16:12.050Z,13.27
2019-01-27T04:18:41.295Z,13.10
2019-01-27T04:21:10.601Z,12.17
2019-01-27T04:23:39.830Z,12.97
2019-01-27T04:26:09.035Z,12.50
2019-01-27T04:28:38.278Z,12.60
2019-01-27T04:31:07.480Z,12.90
2019-01-27T04:33:37.776Z,12.33
2019-01-27T04:36:07.216Z,11.53
2019-01-27T04:38:36.433Z,11.53
2019-01-27T04:41:05.660Z,12.03
2019-01-27T04:43:34.857Z,11.53
2019-01-27T04:46:04.319Z,11.80
2019-01-27T04:48:33.502Z,11.87
2019-01-27T04:51:02.731Z,12.20
2019-01-27T04:53:31.920Z,11.67
2019-01-27T04:56:01.180Z,11.43
2019-01-27T04:58:30.380Z,11.57
2019-01-27T05:00:59.672Z,11.27
2019-01-27T05:03:43.716Z,11.57
2019-01-27T05:06:12.934Z,11.73
2019-01-27T05:08:42.143Z,12.00
2019-01-27T05:11:11.445Z,11.57
2019-01-27T05:13:40.628Z,11.73
2019-01-27T05:16:09.937Z,12.00
2019-01-27T05:18:39.220Z,11.80
2019-01-27T05:21:08.520Z,12.20
2019-01-27T05:23:37.732Z,12.00
2019-01-27T05:26:06.990Z,12.03
2019-01-27T05:28:36.195Z,12.97
2019-01-27T05:31:05.544Z,12.13
2019-01-27T05:33:34.760Z,11.47
2019-01-27T05:36:04.132Z,12.27
2019-01-27T05:38:33.327Z,11.37
2019-01-27T05:41:02.561Z,11.83
2019-01-27T05:43:31.757Z,11.67
2019-01-27T05:46:00.992Z,11.17
2019-01-27T05:48:30.188Z,11.50
2019-01-27T05:50:59.490Z,11.07
2019-01-27T05:53:28.692Z,10.87
2019-01-27T05:55:57.936Z,11.17
2019-01-27T05:58:27.139Z,10.97
2019-01-27T06:00:56.436Z,11.03
2019-01-27T06:03:25.653Z,10.90
2019-01-27T06:05:54.953Z,10.73
2019-01-27T06:08:24.173Z,9.87
2019-01-27T06:10:53.400Z,10.20
2019-01-27T06:13:22.709Z,9.50
2019-01-27T06:15:51.901Z,10.13
2019-01-27T06:18:21.132Z,10.03
2019-01-27T06:20:50.411Z,9.37
2019-01-27T06:23:19.632Z,9.90
2019-01-27T06:25:48.841Z,9.63
2019-01-27T06:28:18.078Z,9.27
2019-01-27T06:30:47.304Z,8.80
2019-01-27T06:33:30.978Z,9.33
2019-01-27T06:36:00.172Z,9.10
2019-01-27T06:38:29.394Z,9.13
2019-01-27T06:40:58.600Z,8.63
2019-01-27T06:43:27.832Z,9.07
2019-01-27T06:45:57.180Z,9.57
2019-01-27T06:48:26.412Z,9.37
2019-01-27T06:50:55.621Z,9.03
2019-01-27T06:53:24.885Z,8.37
2019-01-27T06:55:54.125Z,8.83
2019-01-27T06:58:25.870Z,9.03
2019-01-27T07:01:07.305Z,8.70
2019-01-27T07:04:04.516Z,9.50
2019-01-27T07:07:00.041Z,9.00
2019-01-27T07:09:48.160Z,9.03
2019-01-27T07:12:29.600Z,9.37
2019-01-27T07:15:16.800Z,9.10
2019-01-27T07:18:08.264Z,9.10
2019-01-27T07:21:11.810Z,9.50
2019-01-27T07:23:58.556Z,8.90
2019-01-27T07:26:46.829Z,9.17
2019-01-27T07:29:35.004Z,8.60
2019-01-27T07:32:26.097Z,8.80
2019-01-27T07:35:13.258Z,8.87
2019-01-27T07:37:46.597Z,8.90
2019-01-27T07:40:24.184Z,8.33
2019-01-27T07:43:05.732Z,8.27
2019-01-27T07:46:09.341Z,8.63
2019-01-27T07:48:46.002Z,8.67
2019-01-27T07:51:36.968Z,8.77
2019-01-27T07:54:32.450Z,7.80
2019-01-27T07:57:24.124Z,7.77
2019-01-27T08:00:07.248Z,7.20
2019-01-27T08:03:12.155Z,6.97
2019-01-27T08:05:51.757Z,7.07
2019-01-27T08:08:32.544Z,6.30
2019-01-27T08:11:09.643Z,6.17
2019-01-27T08:13:56.500Z,5.87
2019-01-27T08:16:34.068Z,5.80
2019-01-27T08:19:37.479Z,6.17
2019-01-27T08:22:28.109Z,5.30
2019-01-27T08:25:24.529Z,5.90
2019-01-27T08:28:21.933Z,5.93
2019-01-27T08:31:28.355Z,5.87
2019-01-27T08:34:22.659Z,5.17
2019-01-27T08:37:14.744Z,4.80
2019-01-27T08:39:55.452Z,5.13
2019-01-27T08:42:52.236Z,5.00
2019-01-27T08:45:34.641Z,5.13
2019-01-27T08:48:03.920Z,5.10
2019-01-27T08:50:33.148Z,5.17
2019-01-27T08:53:02.365Z,4.53
2019-01-27T08:55:31.636Z,4.90
2019-01-27T08:58:00.875Z,5.23
2019-01-27T09:00:52.160Z,4.87
2019-01-27T09:03:40.457Z,4.67
2019-01-27T09:06:27.512Z,7.93
2019-01-27T09:09:10.723Z,5.80
2019-01-27T09:11:48.676Z,4.93
2019-01-27T09:14:46.001Z,4.10
2019-01-27T09:17:32.906Z,3.60
2019-01-27T09:20:13.980Z,3.83
2019-01-27T09:23:08.193Z,4.10
2019-01-27T09:25:52.797Z,3.77
2019-01-27T09:28:35.159Z,3.20
2019-01-27T09:31:24.976Z,4.10
2019-01-27T09:34:13.226Z,3.70
2019-01-27T09:36:53.092Z,3.60
2019-01-27T09:39:44.377Z,3.47
2019-01-27T09:42:31.240Z,2.97
2019-01-27T09:45:08.872Z,3.30
2019-01-27T09:48:12.276Z,2.90
2019-01-27T09:50:59.561Z,2.80
2019-01-27T09:53:36.999Z,2.33
2019-01-27T09:56:13.304Z,2.30
2019-01-27T09:59:09.544Z,2.20
2019-01-27T10:01:57.831Z,3.33
2019-01-27T10:04:41.381Z,2.03
2019-01-27T10:07:38.457Z,2.70
2019-01-27T10:10:23.113Z,3.37
2019-01-27T10:13:05.333Z,4.80
2019-01-27T10:15:52.317Z,5.57
2019-01-27T10:18:36.933Z,8.27
2019-01-27T10:21:28.132Z,4.00
2019-01-27T10:24:13.750Z,3.00
2019-01-27T10:27:01.161Z,3.80
2019-01-27T10:29:52.441Z,6.33
2019-01-27T10:32:39.344Z,3.13
2019-01-27T10:35:16.047Z,5.23
2019-01-27T10:38:07.477Z,2.90
2019-01-27T10:40:40.880Z,7.13
2019-01-27T10:43:44.325Z,6.20
2019-01-27T10:46:38.653Z,3.10
2019-01-27T10:49:35.936Z,3.00
2019-01-27T10:52:23.283Z,4.50
2019-01-27T10:55:10.393Z,7.23
2019-01-27T10:57:48.793Z,6.43
2019-01-27T11:00:37.400Z,4.83
2019-01-27T11:03:34.848Z,4.17
2019-01-27T11:06:41.561Z,3.67
2019-01-27T11:09:32.729Z,4.57
2019-01-27T11:12:39.295Z,3.57
2019-01-27T11:15:27.585Z,3.00
2019-01-27T11:18:18.605Z,3.07
2019-01-27T11:21:05.481Z,3.97
2019-01-27T11:24:04.444Z,3.57
2019-01-27T11:26:55.490Z,3.40
2019-01-27T11:29:46.581Z,3.27
2019-01-27T11:32:40.680Z,3.53
2019-01-27T11:35:22.640Z,3.20
2019-01-27T11:38:10.896Z,2.83
2019-01-27T11:40:48.793Z,3.70
2019-01-27T11:43:30.229Z,3.00
2019-01-27T11:46:21.696Z,2.80
2019-01-27T11:49:09.977Z,2.60
2019-01-27T11:51:52.410Z,4.83
2019-01-27T11:54:21.640Z,2.77
2019-01-27T11:56:50.868Z,9.97
2019-01-27T11:59:20.084Z,9.57
2019-01-27T12:01:49.364Z,5.53
2019-01-27T12:04:18.588Z,4.00
2019-01-27T12:06:47.811Z,3.53
2019-01-27T12:09:17.104Z,4.07
2019-01-27T12:11:46.330Z,3.53
2019-01-27T12:14:15.644Z,4.30
2019-01-27T12:16:44.847Z,3.23
2019-01-27T12:19:14.073Z,3.63
2019-01-27T12:21:43.274Z,3.53
2019-01-27T12:24:12.607Z,3.60
2019-01-27T12:26:41.827Z,3.30
2019-01-27T12:29:11.006Z,3.53
2019-01-27T12:31:40.256Z,4.33
2019-01-27T12:34:09.549Z,3.87
2019-01-27T12:36:38.775Z,3.90
2019-01-27T12:39:09.685Z,3.37
2019-01-27T12:41:38.960Z,3.47
2019-01-27T12:44:08.254Z,3.07
2019-01-27T12:46:37.469Z,3.07
2019-01-27T12:49:06.761Z,3.07
2019-01-27T12:51:35.997Z,3.40
2019-01-27T12:54:05.381Z,2.97
2019-01-27T12:56:34.721Z,3.20
2019-01-27T12:59:04.181Z,3.83
2019-01-27T13:01:33.448Z,3.40
2019-01-27T13:04:03.009Z,4.10
2019-01-27T13:06:32.233Z,5.27
2019-01-27T13:09:01.453Z,11.87
2019-01-27T13:11:30.681Z,3.53
2019-01-27T13:13:59.967Z,6.87
2019-01-27T13:16:29.204Z,4.30
2019-01-27T13:18:58.387Z,3.80
2019-01-27T13:21:27.619Z,4.60
2019-01-27T13:23:56.906Z,6.83
2019-01-27T13:26:26.219Z,5.00
2019-01-27T13:28:55.427Z,4.07
2019-01-27T13:31:24.636Z,3.90
2019-01-27T13:33:53.856Z,3.60
2019-01-27T13:36:23.096Z,3.17
2019-01-27T13:38:52.294Z,3.10
2019-01-27T13:41:21.612Z,3.60
2019-01-27T13:43:50.808Z,3.60
2019-01-27T13:46:19.999Z,3.67
2019-01-27T13:48:49.209Z,3.60
2019-01-27T13:51:18.579Z,3.40
2019-01-27T13:53:47.781Z,3.93
2019-01-27T13:56:17.044Z,3.30
2019-01-27T13:58:46.285Z,4.10
2019-01-27T14:01:15.588Z,4.20
2019-01-27T14:03:44.857Z,3.80
2019-01-27T14:06:14.408Z,3.90
2019-01-27T14:08:43.701Z,4.37
2019-01-27T14:11:13.225Z,4.33
2019-01-27T14:13:42.391Z,4.70
2019-01-27T14:16:11.624Z,6.00
2019-01-27T14:18:40.921Z,5.00
2019-01-27T14:21:16.525Z,5.43
2019-01-27T14:23:41.169Z,6.60
2019-01-27T14:26:10.385Z,6.30
2019-01-27T14:28:40.060Z,5.93
2019-01-27T14:31:09.796Z,4.63
2019-01-27T14:33:39.173Z,5.17
2019-01-27T14:36:08.730Z,5.13
2019-01-27T14:38:38.165Z,4.90
2019-01-27T14:41:07.980Z,5.40
2019-01-27T14:43:37.642Z,5.43
2019-01-27T14:46:09.317Z,4.83
2019-01-27T14:48:38.945Z,4.43
2019-01-27T14:51:08.372Z,5.27
2019-01-27T14:53:37.688Z,5.67
2019-01-27T14:56:07.077Z,4.90
2019-01-27T14:58:36.293Z,5.23
2019-01-27T15:01:05.568Z,5.97
2019-01-27T15:03:34.817Z,5.23
2019-01-27T15:06:04.432Z,6.30
2019-01-27T15:08:33.728Z,6.63
2019-01-27T15:11:02.927Z,6.30
2019-01-27T15:13:32.143Z,5.40
2019-01-27T15:16:01.408Z,5.70
2019-01-27T15:18:30.633Z,6.57
2019-01-27T15:21:04.173Z,6.27
2019-01-27T15:23:33.401Z,6.90
2019-01-27T15:26:02.579Z,6.50
2019-01-27T15:28:31.824Z,6.93
2019-01-27T15:31:01.112Z,7.13
2019-01-27T15:33:30.328Z,7.97
2019-01-27T15:35:59.557Z,7.93
2019-01-27T15:38:28.797Z,7.50
2019-01-27T15:40:58.004Z,9.63
2019-01-27T15:43:27.252Z,9.43
2019-01-27T15:45:56.433Z,8.10
2019-01-27T15:48:25.651Z,8.07
2019-01-27T15:50:54.862Z,8.67
2019-01-27T15:53:24.107Z,8.57
2019-01-27T15:55:53.331Z,8.00
2019-01-27T15:58:22.642Z,7.53
2019-01-27T16:00:51.903Z,7.87
2019-01-27T16:03:21.245Z,7.37
2019-01-27T16:05:50.539Z,7.90
2019-01-27T16:08:19.747Z,6.87
2019-01-27T16:10:48.961Z,7.53
2019-01-27T16:13:18.196Z,8.40
2019-01-27T16:15:47.428Z,8.30
2019-01-27T16:18:16.881Z,10.80
2019-01-27T16:20:46.088Z,10.80
2019-01-27T16:23:37.195Z,9.97
2019-01-27T16:26:06.472Z,12.00
2019-01-27T16:28:35.691Z,9.67
2019-01-27T16:31:36.436Z,9.57
2019-01-27T16:34:13.865Z,9.50
2019-01-27T16:36:43.061Z,9.13
2019-01-27T16:39:13.828Z,10.87
2019-01-27T16:41:43.120Z,10.53
2019-01-27T16:44:12.756Z,10.30
2019-01-27T16:46:42.052Z,10.90
2019-01-27T16:49:11.280Z,10.53
2019-01-27T16:51:40.478Z,10.30
2019-01-27T16:54:09.792Z,11.87
2019-01-27T16:56:39.064Z,10.47
2019-01-27T16:59:08.285Z,10.63
2019-01-27T17:01:37.501Z,11.37
2019-01-27T17:04:06.723Z,14.73
2019-01-27T17:06:36.025Z,13.13
2019-01-27T17:09:09.221Z,13.03
2019-01-27T17:11:38.792Z,12.30
2019-01-27T17:14:08.103Z,13.67
2019-01-27T17:16:37.456Z,14.47
2019-01-27T17:19:06.705Z,14.40
2019-01-27T17:21:35.901Z,14.13
2019-01-27T17:24:05.528Z,13.67
2019-01-27T17:26:34.880Z,14.37
2019-01-27T17:29:04.577Z,14.03
2019-01-27T17:31:33.774Z,14.97
2019-01-27T17:34:03.084Z,16.83
2019-01-27T17:36:32.306Z,16.77
2019-01-27T17:39:01.552Z,15.90
2019-01-27T17:41:30.774Z,15.13
2019-01-27T17:44:00.131Z,15.93
2019-01-27T17:46:29.336Z,16.00
2019-01-27T17:48:58.565Z,15.50
2019-01-27T17:51:27.768Z,16.80
2019-01-27T17:54:00.511Z,17.37
2019-01-27T17:56:29.778Z,17.10
2019-01-27T17:59:30.284Z,15.00
2019-01-27T18:02:18.561Z,17.33
2019-01-27T18:05:05.704Z,16.87
2019-01-27T18:07:57.012Z,17.03
2019-01-27T18:10:49.641Z,17.40
2019-01-27T18:13:26.272Z,18.80
2019-01-27T18:15:55.585Z,18.20
2019-01-27T18:18:24.780Z,19.10
2019-01-27T18:20:54.022Z,19.67
2019-01-27T18:23:23.234Z,19.37
2019-01-27T18:25:52.428Z,18.93
2019-01-27T18:28:21.664Z,18.63
2019-01-27T18:30:50.963Z,20.30
2019-01-27T18:33:20.393Z,19.57
2019-01-27T18:35:49.640Z,20.37
2019-01-27T18:38:18.865Z,19.77
2019-01-27T18:40:48.066Z,19.27
2019-01-27T18:43:17.300Z,18.90
2019-01-27T18:45:47.427Z,17.47
2019-01-27T18:48:17.194Z,20.17
2019-01-27T18:50:46.500Z,20.47
2019-01-27T18:53:43.996Z,21.50
2019-01-27T18:56:28.313Z,19.57
2019-01-27T18:59:22.676Z,21.97
2019-01-27T19:02:16.944Z,22.00
2019-01-27T19:05:09.680Z,22.17
2019-01-27T19:07:48.140Z,21.87
2019-01-27T19:10:39.240Z,22.63
2019-01-27T19:13:20.729Z,23.03
2019-01-27T19:15:59.095Z,23.33
2019-01-27T19:18:46.001Z,23.03
2019-01-27T19:21:40.352Z,23.77
2019-01-27T19:24:28.665Z,23.40
2019-01-27T19:27:20.512Z,25.27
2019-01-27T19:30:11.845Z,22.87
2019-01-27T19:33:00.193Z,22.87
2019-01-27T19:36:00.878Z,17.13
2019-01-27T19:38:48.551Z,16.53
2019-01-27T19:41:27.124Z,16.97
2019-01-27T19:44:19.432Z,16.10
2019-01-27T19:47:06.300Z,15.00
2019-01-27T19:50:00.501Z,13.80
2019-01-27T19:52:57.579Z,12.50
2019-01-27T19:55:58.189Z,12.17
2019-01-27T19:59:01.821Z,10.67
2019-01-27T20:01:48.626Z,9.57
2019-01-27T20:04:31.743Z,10.80
2019-01-27T20:07:16.503Z,9.17
2019-01-27T20:10:09.620Z,8.40
2019-01-27T20:13:13.278Z,8.80
2019-01-27T20:16:04.415Z,8.03
2019-01-27T20:18:46.540Z,7.97
2019-01-27T20:21:33.108Z,7.60
2019-01-27T20:24:10.181Z,7.43
2019-01-27T20:27:03.152Z,7.47
2019-01-27T20:29:44.000Z,7.00
2019-01-27T20:32:44.361Z,7.73
2019-01-27T20:35:38.565Z,6.43
2019-01-27T20:38:35.690Z,6.33
2019-01-27T20:41:22.536Z,6.07
2019-01-27T20:44:07.906Z,6.27
2019-01-27T20:46:59.065Z,5.40
2019-01-27T20:49:46.663Z,5.00
2019-01-27T20:52:24.641Z,5.33
2019-01-27T20:55:19.211Z,5.10
2019-01-27T20:58:13.690Z,4.83
2019-01-27T21:01:01.336Z,4.67
2019-01-27T21:03:40.642Z,5.20
2019-01-27T21:06:28.896Z,5.17
2019-01-27T21:09:24.582Z,3.67
2019-01-27T21:12:21.953Z,4.00
2019-01-27T21:15:06.623Z,3.33
2019-01-27T21:17:46.649Z,4.20
2019-01-27T21:20:18.790Z,2.93
2019-01-27T21:22:48.003Z,3.40
2019-01-27T21:25:17.253Z,3.70
2019-01-27T21:27:46.456Z,3.40
2019-01-27T21:30:16.888Z,3.30
2019-01-27T21:32:46.109Z,3.53
2019-01-27T21:35:15.320Z,3.63
2019-01-27T21:37:44.520Z,3.70
2019-01-27T21:40:19.193Z,2.90
2019-01-27T21:42:48.377Z,3.17
2019-01-27T21:45:17.840Z,3.30
2019-01-27T21:47:47.051Z,4.33
2019-01-27T21:50:18.019Z,3.57
2019-01-27T21:52:47.220Z,4.13
2019-01-27T21:55:16.466Z,3.50
2019-01-27T21:57:45.684Z,3.70
2019-01-27T22:00:18.500Z,4.00
2019-01-27T22:02:47.700Z,4.53
2019-01-27T22:05:16.937Z,4.47
2019-01-27T22:07:46.149Z,5.40
2019-01-27T22:10:15.453Z,5.33
2019-01-27T22:12:44.704Z,6.93
2019-01-27T22:15:14.061Z,6.40
2019-01-27T22:17:43.254Z,6.83
2019-01-27T22:20:14.602Z,6.60
2019-01-27T22:22:43.963Z,7.40
2019-01-27T22:25:14.132Z,6.73
2019-01-27T22:27:43.365Z,6.60
2019-01-27T22:30:15.527Z,7.30
2019-01-27T22:32:44.729Z,6.47
2019-01-27T22:35:13.957Z,5.80
2019-01-27T22:37:43.255Z,6.03
2019-01-27T22:40:13.626Z,5.63
2019-01-27T22:42:42.868Z,5.17
2019-01-27T22:45:13.076Z,5.00
2019-01-27T22:47:42.284Z,5.43
2019-01-27T22:50:14.428Z,5.47
2019-01-27T22:52:43.673Z,5.97
2019-01-27T22:55:13.024Z,5.53
2019-01-27T22:57:42.257Z,5.03
2019-01-27T23:00:34.984Z,5.90
2019-01-27T23:03:05.104Z,4.43
2019-01-27T23:05:34.300Z,6.00
2019-01-27T23:08:03.591Z,5.70
2019-01-27T23:10:32.785Z,6.80
2019-01-27T23:13:02.037Z,5.90
2019-01-27T23:15:31.224Z,6.27
2019-01-27T23:18:00.456Z,5.93
2019-01-27T23:20:29.659Z,5.37
2019-01-27T23:22:58.860Z,5.27
2019-01-27T23:25:28.099Z,6.10
2019-01-27T23:27:57.284Z,6.53
2019-01-27T23:30:26.493Z,6.20
2019-01-27T23:32:55.720Z,6.03
2019-01-27T23:35:24.925Z,5.17
2019-01-27T23:37:54.141Z,5.70
2019-01-27T23:40:23.438Z,6.33
2019-01-27T23:42:52.634Z,6.53
2019-01-27T23:45:21.876Z,6.33
2019-01-27T23:47:51.064Z,6.00
2019-01-27T23:50:20.282Z,6.00
2019-01-27T23:52:49.513Z,5.97
2019-01-27T23:55:18.749Z,6.50
2019-01-27T23:57:48.008Z,5.90
